Time;durP1;ratioP1;P1;durP2;ratioP2;P2;SDS_P1;SDS_P2;PMS_P1;PMS_P2;Temp;Humidity;BMP_temperature;BMP_pressure;BME280_temperature;BME280_humidity;BME280_pressure;Samples;Min_cycle;Max_cycle;Signal;HPM_P1;HPM_P2
2022/03/26 00:00:50;;;;;;;43.40;27.20;;;;;;;;;;5074440;28;20417;-71
2022/03/26 00:03:17;;;;;;;45.10;28.73;;;;;;;;;;5075693;28;20905;-70
2022/03/26 00:05:43;;;;;;;47.70;27.00;;;;;;;;;;5075600;28;20492;-71
2022/03/26 00:08:10;;;;;;;45.73;28.20;;;;;;;;;;5076017;28;20410;-71
2022/03/26 00:10:39;;;;;;;45.10;26.43;;;;;;;;;;5075414;28;20452;-69
2022/03/26 00:13:05;;;;;;;44.40;27.83;;;;;;;;;;5075568;28;20413;-68
2022/03/26 00:15:31;;;;;;;42.40;27.87;;;;;;;;;;5075403;28;20909;-69
2022/03/26 00:17:57;;;;;;;52.43;31.23;;;;;;;;;;5075529;28;20538;-70
2022/03/26 00:20:23;;;;;;;54.07;32.80;;;;;;;;;;5075398;28;20824;-71
2022/03/26 00:22:49;;;;;;;54.60;33.00;;;;;;;;;;5075270;28;20940;-70
2022/03/26 00:25:17;;;;;;;57.47;34.37;;;;;;;;;;5075253;28;20416;-70
2022/03/26 00:27:43;;;;;;;59.90;34.27;;;;;;;;;;5075585;28;20407;-70
2022/03/26 00:30:11;;;;;;;59.03;32.27;;;;;;;;;;5075448;28;20413;-70
2022/03/26 00:32:37;;;;;;;54.50;32.87;;;;;;;;;;5075210;28;20402;-70
2022/03/26 00:35:03;;;;;;;54.80;34.40;;;;;;;;;;5075169;28;20489;-71
2022/03/26 00:37:29;;;;;;;50.27;31.40;;;;;;;;;;5074030;28;20522;-70
2022/03/26 00:39:55;;;;;;;49.70;30.47;;;;;;;;;;5074745;28;20437;-70
2022/03/26 00:42:21;;;;;;;52.90;31.73;;;;;;;;;;5074883;28;20385;-70
2022/03/26 00:44:47;;;;;;;57.57;31.50;;;;;;;;;;5074907;28;20377;-69
2022/03/26 00:47:13;;;;;;;54.60;31.27;;;;;;;;;;5073595;28;20433;-67
2022/03/26 00:49:39;;;;;;;48.67;31.00;;;;;;;;;;5074797;28;20856;-70
2022/03/26 00:52:05;;;;;;;50.87;30.30;;;;;;;;;;5074793;28;20406;-69
2022/03/26 00:54:32;;;;;;;50.67;29.63;;;;;;;;;;5074644;28;20961;-70
2022/03/26 00:56:59;;;;;;;50.63;30.63;;;;;;;;;;5074836;28;20466;-70
2022/03/26 00:59:25;;;;;;;51.90;32.40;;;;;;;;;;5074680;28;20415;-70
2022/03/26 01:01:51;;;;;;;47.60;30.00;;;;;;;;;;5074693;28;20417;-70
2022/03/26 01:04:17;;;;;;;47.23;29.30;;;;;;;;;;5074487;28;20402;-69
2022/03/26 01:06:43;;;;;;;52.67;30.90;;;;;;;;;;5074470;28;20380;-69
2022/03/26 01:09:09;;;;;;;48.87;31.33;;;;;;;;;;5074428;28;20429;-69
2022/03/26 01:11:35;;;;;;;57.40;34.40;;;;;;;;;;5074398;28;20407;-69
2022/03/26 01:14:04;;;;;;;52.40;30.30;;;;;;;;;;5074295;28;20376;-69
2022/03/26 01:16:30;;;;;;;63.00;31.57;;;;;;;;;;5074176;28;20402;-71
2022/03/26 01:18:56;;;;;;;53.60;32.13;;;;;;;;;;5074422;28;20497;-68
2022/03/26 01:21:23;;;;;;;60.47;32.10;;;;;;;;;;5074201;28;20399;-71
2022/03/26 01:23:49;;;;;;;51.30;31.20;;;;;;;;;;5074067;28;20389;-73
2022/03/26 01:26:15;;;;;;;55.50;33.10;;;;;;;;;;5074062;28;20425;-70
2022/03/26 01:28:42;;;;;;;49.80;32.63;;;;;;;;;;5073984;28;20437;-70
2022/03/26 01:31:08;;;;;;;56.53;33.47;;;;;;;;;;5073934;28;20402;-69
2022/03/26 01:33:34;;;;;;;54.60;31.60;;;;;;;;;;5073887;28;20410;-69
2022/03/26 01:36:00;;;;;;;53.53;32.77;;;;;;;;;;5073835;28;20905;-69
2022/03/26 01:38:26;;;;;;;53.40;32.97;;;;;;;;;;5073859;28;20527;-67
2022/03/26 01:40:52;;;;;;;55.40;32.93;;;;;;;;;;5073780;28;20475;-69
2022/03/26 01:43:18;;;;;;;50.27;32.00;;;;;;;;;;5073771;28;20410;-69
2022/03/26 01:45:44;;;;;;;55.20;33.10;;;;;;;;;;5073845;28;20845;-69
2022/03/26 01:48:10;;;;;;;62.73;34.10;;;;;;;;;;5073741;28;20398;-70
2022/03/26 01:50:39;;;;;;;59.90;33.97;;;;;;;;;;5073611;28;20389;-67
2022/03/26 01:53:05;;;;;;;50.73;32.97;;;;;;;;;;5073657;28;20373;-69
2022/03/26 01:55:31;;;;;;;57.30;32.67;;;;;;;;;;5072309;28;20429;-69
2022/03/26 01:57:57;;;;;;;50.63;31.00;;;;;;;;;;5073763;28;20444;-67
2022/03/26 02:00:23;;;;;;;58.90;32.93;;;;;;;;;;5073516;28;20406;-68
2022/03/26 02:02:49;;;;;;;56.60;31.70;;;;;;;;;;5073587;28;20406;-67
2022/03/26 02:05:20;;;;;;;54.63;32.17;;;;;;;;;;5073476;28;20463;-67
2022/03/26 02:07:47;;;;;;;53.40;32.97;;;;;;;;;;5073503;28;20485;-68
2022/03/26 02:10:14;;;;;;;60.40;32.90;;;;;;;;;;5072110;28;20947;-65
2022/03/26 02:12:40;;;;;;;59.40;32.20;;;;;;;;;;5073447;28;20944;-69
2022/03/26 02:15:07;;;;;;;62.37;33.67;;;;;;;;;;5073454;28;20464;-70
2022/03/26 02:17:36;;;;;;;61.30;34.43;;;;;;;;;;5073302;28;20469;-69
2022/03/26 02:20:07;;;;;;;59.00;32.40;;;;;;;;;;5073289;28;20451;-70
2022/03/26 02:22:33;;;;;;;49.93;31.33;;;;;;;;;;5073699;28;20860;-69
2022/03/26 02:24:59;;;;;;;54.07;32.13;;;;;;;;;;5071978;28;20418;-69
2022/03/26 02:27:28;;;;;;;54.10;32.33;;;;;;;;;;5073384;28;20389;-70
2022/03/26 02:29:54;;;;;;;51.63;31.40;;;;;;;;;;5073244;28;20476;-69
2022/03/26 02:32:26;;;;;;;51.30;30.77;;;;;;;;;;5073270;28;20385;-69
2022/03/26 02:34:52;;;;;;;56.43;33.30;;;;;;;;;;5073234;28;20381;-71
2022/03/26 02:37:18;;;;;;;54.87;32.37;;;;;;;;;;5073110;28;20551;-70
2022/03/26 02:39:45;;;;;;;49.37;31.93;;;;;;;;;;5072874;28;20433;-70
2022/03/26 02:42:12;;;;;;;50.63;30.40;;;;;;;;;;5073113;28;20501;-71
2022/03/26 02:44:38;;;;;;;55.90;31.90;;;;;;;;;;5071845;28;20421;-70
2022/03/26 02:47:04;;;;;;;55.07;30.90;;;;;;;;;;5073120;28;20406;-70
2022/03/26 02:49:30;;;;;;;54.87;33.43;;;;;;;;;;5072989;28;20794;-70
2022/03/26 02:51:56;;;;;;;58.70;31.83;;;;;;;;;;5073120;28;20402;-71
2022/03/26 02:54:22;;;;;;;52.30;30.50;;;;;;;;;;5072955;28;20732;-71
2022/03/26 02:56:49;;;;;;;58.03;32.90;;;;;;;;;;5072945;28;20480;-70
2022/03/26 02:59:15;;;;;;;50.67;30.90;;;;;;;;;;5072953;28;20476;-70
2022/03/26 03:01:41;;;;;;;55.03;31.20;;;;;;;;;;5076492;28;20411;-71
2022/03/26 03:04:14;;;;;;;53.50;32.27;;;;;;;;;;5075441;28;20417;-70
2022/03/26 03:06:40;;;;;;;54.53;32.17;;;;;;;;;;5076561;28;20415;-70
2022/03/26 03:09:06;;;;;;;55.30;32.00;;;;;;;;;;5076619;28;20735;-71
2022/03/26 03:11:35;;;;;;;54.40;31.50;;;;;;;;;;5076424;28;20492;-70
2022/03/26 03:14:01;;;;;;;49.97;31.63;;;;;;;;;;5076525;28;20878;-71
2022/03/26 03:16:27;;;;;;;51.27;30.20;;;;;;;;;;5076473;28;20395;-70
2022/03/26 03:18:53;;;;;;;50.60;31.73;;;;;;;;;;5076748;28;20392;-70
2022/03/26 03:21:19;;;;;;;57.63;31.67;;;;;;;;;;5076435;28;20402;-71
2022/03/26 03:23:45;;;;;;;53.70;32.40;;;;;;;;;;5076343;28;20433;-70
2022/03/26 03:26:11;;;;;;;58.83;32.73;;;;;;;;;;5076253;28;20388;-71
2022/03/26 03:28:38;;;;;;;56.40;32.23;;;;;;;;;;5076231;28;20887;-69
2022/03/26 03:31:04;;;;;;;57.47;32.07;;;;;;;;;;5076425;28;20385;-70
2022/03/26 03:33:30;;;;;;;66.43;32.83;;;;;;;;;;5076174;28;20414;-68
2022/03/26 03:35:56;;;;;;;46.57;29.57;;;;;;;;;;5076214;28;20381;-67
2022/03/26 03:38:22;;;;;;;63.53;31.73;;;;;;;;;;5076257;28;20465;-66
2022/03/26 03:40:48;;;;;;;53.27;31.10;;;;;;;;;;5075852;28;20428;-67
2022/03/26 03:43:14;;;;;;;58.20;32.57;;;;;;;;;;5074684;28;20397;-66
2022/03/26 03:45:40;;;;;;;56.50;31.70;;;;;;;;;;5075895;28;20392;-66
2022/03/26 03:48:06;;;;;;;49.43;31.40;;;;;;;;;;5075969;28;20883;-68
2022/03/26 03:50:32;;;;;;;52.53;33.60;;;;;;;;;;5075856;28;20484;-66
2022/03/26 03:52:58;;;;;;;54.67;32.00;;;;;;;;;;5075860;28;20443;-67
2022/03/26 03:55:24;;;;;;;51.53;32.33;;;;;;;;;;5075684;28;20385;-69
2022/03/26 03:57:51;;;;;;;51.20;30.70;;;;;;;;;;5075757;28;20436;-70
2022/03/26 04:00:17;;;;;;;55.97;32.77;;;;;;;;;;5075659;28;20881;-70
2022/03/26 04:02:43;;;;;;;53.97;31.73;;;;;;;;;;5075684;28;20923;-70
2022/03/26 04:05:10;;;;;;;53.73;30.90;;;;;;;;;;5075632;28;20399;-70
2022/03/26 04:07:40;;;;;;;47.47;31.17;;;;;;;;;;5075510;28;20892;-65
2022/03/26 04:10:07;;;;;;;50.40;30.77;;;;;;;;;;5075581;28;20389;-69
2022/03/26 04:12:35;;;;;;;54.30;31.10;;;;;;;;;;5075481;28;20860;-67
2022/03/26 04:15:01;;;;;;;49.07;30.30;;;;;;;;;;5075446;28;20416;-69
2022/03/26 04:17:27;;;;;;;56.97;32.50;;;;;;;;;;5074400;28;20455;-70
2022/03/26 04:19:53;;;;;;;58.30;33.40;;;;;;;;;;5075334;28;20398;-70
2022/03/26 04:22:22;;;;;;;53.40;31.60;;;;;;;;;;5075272;28;20413;-70
2022/03/26 04:24:51;;;;;;;53.53;32.47;;;;;;;;;;5075401;28;20418;-70
2022/03/26 04:27:16;;;;;;;47.20;29.60;;;;;;;;;;5075333;28;20411;-70
2022/03/26 04:29:42;;;;;;;51.20;30.90;;;;;;;;;;5075417;28;20372;-69
2022/03/26 04:32:10;;;;;;;53.20;30.67;;;;;;;;;;5073795;28;20385;-70
2022/03/26 04:34:36;;;;;;;53.00;32.27;;;;;;;;;;5075057;28;20468;-70
2022/03/26 04:37:02;;;;;;;57.03;32.03;;;;;;;;;;5074796;28;20447;-70
2022/03/26 04:39:28;;;;;;;54.03;31.17;;;;;;;;;;5074704;28;20488;-70
2022/03/26 04:41:54;;;;;;;50.87;30.47;;;;;;;;;;5074894;28;20373;-69
2022/03/26 04:44:20;;;;;;;53.23;32.00;;;;;;;;;;5074847;28;20377;-70
2022/03/26 04:46:46;;;;;;;57.73;30.93;;;;;;;;;;5074841;28;20381;-70
2022/03/26 04:49:15;;;;;;;50.40;31.20;;;;;;;;;;5074665;28;20822;-70
2022/03/26 04:51:41;;;;;;;52.10;30.80;;;;;;;;;;5074637;28;20472;-71
2022/03/26 04:54:07;;;;;;;55.77;30.40;;;;;;;;;;5074634;28;20407;-70
2022/03/26 04:56:33;;;;;;;49.03;30.57;;;;;;;;;;5074413;28;20897;-71
2022/03/26 04:58:59;;;;;;;57.00;33.30;;;;;;;;;;5074552;28;20414;-70
2022/03/26 05:01:27;;;;;;;52.47;31.50;;;;;;;;;;5074465;28;20410;-71
2022/03/26 05:03:53;;;;;;;51.90;31.40;;;;;;;;;;5074373;28;20398;-70
2022/03/26 05:06:19;;;;;;;55.07;31.00;;;;;;;;;;5073079;28;20442;-71
2022/03/26 05:08:45;;;;;;;46.57;29.27;;;;;;;;;;5074376;28;20879;-70
2022/03/26 05:11:13;;;;;;;52.77;29.27;;;;;;;;;;5072905;28;20392;-70
2022/03/26 05:13:39;;;;;;;48.97;30.70;;;;;;;;;;5074590;28;20365;-68
2022/03/26 05:16:05;;;;;;;53.83;30.40;;;;;;;;;;5074275;28;20745;-69
2022/03/26 05:18:31;;;;;;;54.13;30.37;;;;;;;;;;5074093;28;20476;-69
2022/03/26 05:20:57;;;;;;;45.73;28.63;;;;;;;;;;5074142;28;20489;-70
2022/03/26 05:23:24;;;;;;;46.47;29.50;;;;;;;;;;5073621;28;20391;-70
2022/03/26 05:25:50;;;;;;;61.53;30.97;;;;;;;;;;5074175;28;20392;-69
2022/03/26 05:28:16;;;;;;;51.23;30.83;;;;;;;;;;5074066;28;20792;-70
2022/03/26 05:30:42;;;;;;;53.90;30.53;;;;;;;;;;5073945;28;20395;-69
2022/03/26 05:33:08;;;;;;;48.77;29.10;;;;;;;;;;5073920;28;20427;-68
2022/03/26 05:35:34;;;;;;;52.47;30.60;;;;;;;;;;5073894;28;20436;-70
2022/03/26 05:38:01;;;;;;;51.73;30.00;;;;;;;;;;5072646;28;20518;-67
2022/03/26 05:40:27;;;;;;;51.23;30.33;;;;;;;;;;5073635;28;20470;-65
2022/03/26 05:42:53;;;;;;;46.33;29.80;;;;;;;;;;5073734;28;20442;-67
2022/03/26 05:45:19;;;;;;;49.93;28.60;;;;;;;;;;5072597;28;20864;-69
2022/03/26 05:47:48;;;;;;;48.03;29.03;;;;;;;;;;5073709;28;20422;-67
2022/03/26 05:50:14;;;;;;;48.93;30.07;;;;;;;;;;5073756;28;20475;-66
2022/03/26 05:52:43;;;;;;;49.70;28.97;;;;;;;;;;5073633;28;20856;-66
2022/03/26 05:55:09;;;;;;;50.67;28.77;;;;;;;;;;5073488;28;20424;-65
2022/03/26 05:57:35;;;;;;;44.47;28.77;;;;;;;;;;5073531;28;20454;-69
2022/03/26 06:00:02;;;;;;;48.47;29.70;;;;;;;;;;5073518;28;20385;-67
2022/03/26 06:02:28;;;;;;;49.33;30.13;;;;;;;;;;5073781;28;20416;-71
2022/03/26 06:04:54;;;;;;;49.43;29.60;;;;;;;;;;5073641;28;20403;-69
2022/03/26 06:07:20;;;;;;;51.10;30.10;;;;;;;;;;5073539;28;20413;-69
2022/03/26 06:09:46;;;;;;;45.90;29.53;;;;;;;;;;5073393;28;20389;-68
2022/03/26 06:12:12;;;;;;;51.30;29.13;;;;;;;;;;5073544;28;20403;-68
2022/03/26 06:14:38;;;;;;;47.37;29.27;;;;;;;;;;5072076;28;20423;-69
2022/03/26 06:17:04;;;;;;;51.27;29.73;;;;;;;;;;5073309;28;20512;-67
2022/03/26 06:19:30;;;;;;;47.87;29.40;;;;;;;;;;5072029;28;20414;-66
2022/03/26 06:21:56;;;;;;;48.60;29.20;;;;;;;;;;5073339;28;20476;-67
2022/03/26 06:24:22;;;;;;;49.33;29.70;;;;;;;;;;5073185;28;20406;-66
2022/03/26 06:26:48;;;;;;;52.33;31.27;;;;;;;;;;5073118;28;20406;-68
2022/03/26 06:29:15;;;;;;;50.90;30.30;;;;;;;;;;5073467;28;20405;-71
2022/03/26 06:31:42;;;;;;;47.97;29.00;;;;;;;;;;5073460;28;20414;-68
2022/03/26 06:34:08;;;;;;;52.67;29.73;;;;;;;;;;5073154;28;20389;-67
2022/03/26 06:36:34;;;;;;;60.97;31.47;;;;;;;;;;5075383;28;20446;-68
2022/03/26 06:39:00;;;;;;;52.87;30.10;;;;;;;;;;5077286;28;20448;-71
2022/03/26 06:41:26;;;;;;;49.63;29.70;;;;;;;;;;5077206;28;20467;-71
2022/03/26 06:43:52;;;;;;;47.87;29.70;;;;;;;;;;5077104;28;20475;-70
2022/03/26 06:46:18;;;;;;;47.33;29.83;;;;;;;;;;5076994;28;20381;-70
2022/03/26 06:48:44;;;;;;;46.60;29.67;;;;;;;;;;5077052;28;20406;-72
2022/03/26 06:51:10;;;;;;;49.90;30.53;;;;;;;;;;5075565;28;20392;-69
2022/03/26 06:53:37;;;;;;;52.40;30.27;;;;;;;;;;5076943;28;20421;-71
2022/03/26 06:56:03;;;;;;;47.70;28.70;;;;;;;;;;5076786;28;20411;-70
2022/03/26 06:58:29;;;;;;;66.50;39.07;;;;;;;;;;5076790;28;20465;-70
2022/03/26 07:00:55;;;;;;;51.87;32.57;;;;;;;;;;5076853;28;20417;-68
2022/03/26 07:03:21;;;;;;;45.33;28.70;;;;;;;;;;5076718;28;20388;-68
2022/03/26 07:05:48;;;;;;;52.47;29.30;;;;;;;;;;5076951;28;20368;-68
2022/03/26 07:08:14;;;;;;;46.53;27.60;;;;;;;;;;5076684;28;20406;-68
2022/03/26 07:10:44;;;;;;;49.60;28.60;;;;;;;;;;5076468;28;20428;-68
2022/03/26 07:13:10;;;;;;;49.20;28.50;;;;;;;;;;5076538;28;20411;-67
2022/03/26 07:15:36;;;;;;;49.30;29.33;;;;;;;;;;5076521;28;20504;-68
2022/03/26 07:18:02;;;;;;;47.77;29.37;;;;;;;;;;5076288;28;20479;-66
2022/03/26 07:20:29;;;;;;;57.67;35.10;;;;;;;;;;5076400;28;20935;-68
2022/03/26 07:22:55;;;;;;;48.20;29.00;;;;;;;;;;5076358;28;20402;-68
2022/03/26 07:25:21;;;;;;;48.57;28.37;;;;;;;;;;5076275;28;20403;-68
2022/03/26 07:27:47;;;;;;;50.07;28.30;;;;;;;;;;5076282;28;20385;-68
2022/03/26 07:30:13;;;;;;;49.73;28.23;;;;;;;;;;5076351;28;20946;-67
2022/03/26 07:32:39;;;;;;;51.80;28.53;;;;;;;;;;5076207;28;20901;-69
2022/03/26 07:35:06;;;;;;;44.33;27.17;;;;;;;;;;5076185;28;20432;-68
2022/03/26 07:37:32;;;;;;;47.97;27.70;;;;;;;;;;5076161;28;20497;-70
2022/03/26 07:39:58;;;;;;;47.33;28.90;;;;;;;;;;5073955;28;20865;-70
2022/03/26 07:42:24;;;;;;;47.70;28.77;;;;;;;;;;5075278;28;20414;-71
2022/03/26 07:44:50;;;;;;;60.57;28.93;;;;;;;;;;5075349;28;20409;-71
2022/03/26 07:47:16;;;;;;;44.80;27.23;;;;;;;;;;5074484;28;20442;-71
2022/03/26 07:49:42;;;;;;;42.40;27.00;;;;;;;;;;5074825;28;20935;-71
2022/03/26 07:52:09;;;;;;;47.30;29.20;;;;;;;;;;5074841;28;20385;-71
2022/03/26 07:54:35;;;;;;;52.20;29.30;;;;;;;;;;5074681;28;20422;-70
2022/03/26 07:57:01;;;;;;;46.13;26.57;;;;;;;;;;5073275;28;20468;-71
2022/03/26 07:59:27;;;;;;;50.73;28.30;;;;;;;;;;5074650;28;20489;-71
2022/03/26 08:01:53;;;;;;;42.60;27.00;;;;;;;;;;5073279;28;20851;-71
2022/03/26 08:04:19;;;;;;;44.17;28.10;;;;;;;;;;5074565;28;20411;-69
2022/03/26 08:06:44;;;;;;;57.07;28.40;;;;;;;;;;5074434;28;20453;-70
2022/03/26 08:09:10;;;;;;;55.90;28.87;;;;;;;;;;5074714;28;20429;-71
2022/03/26 08:11:36;;;;;;;43.90;29.57;;;;;;;;;;5074302;28;20778;-69
2022/03/26 08:14:02;;;;;;;44.50;28.20;;;;;;;;;;5074672;28;20451;-71
2022/03/26 08:16:28;;;;;;;47.43;29.83;;;;;;;;;;5074367;28;20406;-71
2022/03/26 08:18:54;;;;;;;46.93;28.90;;;;;;;;;;5074295;28;20418;-71
2022/03/26 08:21:20;;;;;;;47.20;28.50;;;;;;;;;;5074274;28;20819;-70
2022/03/26 08:23:50;;;;;;;58.87;28.73;;;;;;;;;;5074226;28;20489;-70
2022/03/26 08:26:23;;;;;;;50.57;28.67;;;;;;;;;;5074182;28;20501;-70
2022/03/26 08:28:52;;;;;;;46.60;28.00;;;;;;;;;;5074144;28;20406;-71
2022/03/26 08:31:20;;;;;;;42.27;27.60;;;;;;;;;;5074118;28;20418;-71
2022/03/26 08:33:46;;;;;;;42.60;28.30;;;;;;;;;;5074418;28;20406;-70
2022/03/26 08:36:12;;;;;;;46.53;27.73;;;;;;;;;;5073979;28;20959;-70
2022/03/26 08:38:39;;;;;;;44.93;28.40;;;;;;;;;;5021815;28;1485807;-71
2022/03/26 08:41:08;;;;;;;56.90;29.60;;;;;;;;;;5075077;28;20433;-70
2022/03/26 08:43:34;;;;;;;50.07;29.63;;;;;;;;;;5074830;28;20799;-70
2022/03/26 08:46:00;;;;;;;43.50;26.60;;;;;;;;;;5074840;28;20885;-70
2022/03/26 08:48:26;;;;;;;59.87;28.87;;;;;;;;;;5075086;28;20395;-71
2022/03/26 08:50:52;;;;;;;45.47;28.40;;;;;;;;;;5074760;28;20487;-70
2022/03/26 08:53:18;;;;;;;46.73;30.60;;;;;;;;;;5074608;28;20814;-70
2022/03/26 08:55:44;;;;;;;64.93;28.60;;;;;;;;;;5074817;28;20422;-71
2022/03/26 08:58:10;;;;;;;45.30;28.40;;;;;;;;;;5074038;28;20474;-70
2022/03/26 09:00:37;;;;;;;52.53;28.20;;;;;;;;;;5074823;28;20402;-69
2022/03/26 09:03:03;;;;;;;49.83;30.57;;;;;;;;;;5074401;28;20411;-70
2022/03/26 09:05:29;;;;;;;45.93;29.47;;;;;;;;;;5074401;28;20390;-71
2022/03/26 09:07:56;;;;;;;54.63;29.33;;;;;;;;;;5074362;28;20406;-71
2022/03/26 09:10:22;;;;;;;43.00;28.30;;;;;;;;;;5074549;28;20406;-71
2022/03/26 09:12:49;;;;;;;52.13;29.53;;;;;;;;;;5073017;28;20519;-71
2022/03/26 09:15:15;;;;;;;39.67;28.13;;;;;;;;;;5074271;28;20406;-71
2022/03/26 09:17:41;;;;;;;56.27;32.10;;;;;;;;;;5073900;28;20473;-71
2022/03/26 09:20:08;;;;;;;63.07;37.67;;;;;;;;;;5074116;28;20401;-71
2022/03/26 09:22:34;;;;;;;48.33;30.70;;;;;;;;;;5073999;28;20410;-71
2022/03/26 09:25:00;;;;;;;54.73;32.90;;;;;;;;;;5073903;28;20410;-71
2022/03/26 09:27:26;;;;;;;55.53;30.37;;;;;;;;;;5073914;28;20433;-71
2022/03/26 09:29:52;;;;;;;48.57;30.17;;;;;;;;;;5072598;28;20414;-71
2022/03/26 09:32:19;;;;;;;44.80;29.10;;;;;;;;;;5073806;28;20840;-71
2022/03/26 09:34:44;;;;;;;45.30;29.93;;;;;;;;;;5074093;28;20398;-70
2022/03/26 09:37:12;;;;;;;48.20;29.50;;;;;;;;;;5073657;28;20453;-70
2022/03/26 09:39:38;;;;;;;58.13;30.37;;;;;;;;;;5073632;28;20476;-70
2022/03/26 09:42:05;;;;;;;51.60;31.00;;;;;;;;;;5073654;28;20438;-71
2022/03/26 09:44:32;;;;;;;52.23;31.50;;;;;;;;;;5073777;28;20958;-71
2022/03/26 09:46:59;;;;;;;45.90;29.87;;;;;;;;;;5073674;28;20402;-70
2022/03/26 09:49:25;;;;;;;49.23;31.13;;;;;;;;;;5073642;28;20517;-70
2022/03/26 09:51:54;;;;;;;42.40;29.53;;;;;;;;;;5073594;28;20440;-71
2022/03/26 09:54:21;;;;;;;48.57;30.23;;;;;;;;;;5073512;28;20408;-71
2022/03/26 09:56:47;;;;;;;51.63;30.77;;;;;;;;;;5073273;28;20418;-71
2022/03/26 09:59:13;;;;;;;46.53;29.67;;;;;;;;;;5072136;28;20439;-69
2022/03/26 10:01:39;;;;;;;54.43;29.43;;;;;;;;;;5073354;28;20766;-70
2022/03/26 10:04:11;;;;;;;50.53;29.37;;;;;;;;;;5073384;28;20402;-71
2022/03/26 10:06:38;;;;;;;55.93;30.20;;;;;;;;;;5073330;28;20396;-69
2022/03/26 10:09:04;;;;;;;46.70;30.70;;;;;;;;;;5073267;28;20409;-70
2022/03/26 10:11:33;;;;;;;50.07;29.33;;;;;;;;;;5073216;28;20474;-71
2022/03/26 10:14:00;;;;;;;52.03;31.40;;;;;;;;;;5073316;28;20408;-72
2022/03/26 10:16:26;;;;;;;45.00;30.30;;;;;;;;;;5073167;28;20494;-70
2022/03/26 10:18:52;;;;;;;44.83;29.80;;;;;;;;;;5072069;28;20571;-71
2022/03/26 10:21:20;;;;;;;49.00;30.80;;;;;;;;;;5072677;28;20905;-70
2022/03/26 10:23:47;;;;;;;48.10;31.67;;;;;;;;;;5071891;28;20457;-71
2022/03/26 10:26:14;;;;;;;43.20;31.00;;;;;;;;;;5072853;28;20413;-72
2022/03/26 10:28:41;;;;;;;51.40;32.60;;;;;;;;;;5073193;28;20441;-67
2022/03/26 10:34:02;;;;;;;49.67;31.97;;;;;;;;;;5073209;28;20481;-67
2022/03/26 10:36:28;;;;;;;51.90;31.60;;;;;;;;;;5073083;28;20488;-68
2022/03/26 10:38:54;;;;;;;48.03;31.27;;;;;;;;;;5072892;28;20968;-68
2022/03/26 10:41:21;;;;;;;54.23;32.73;;;;;;;;;;5073010;28;20501;-66
2022/03/26 10:43:47;;;;;;;47.53;31.50;;;;;;;;;;5071706;28;20430;-67
2022/03/26 10:46:13;;;;;;;47.57;31.40;;;;;;;;;;5072927;28;20409;-67
2022/03/26 10:48:39;;;;;;;46.53;31.27;;;;;;;;;;5073012;28;20417;-67
2022/03/26 10:51:06;;;;;;;42.80;31.43;;;;;;;;;;5072890;28;20465;-67
2022/03/26 10:53:37;;;;;;;52.87;31.80;;;;;;;;;;5071621;28;20422;-67
2022/03/26 10:56:07;;;;;;;50.30;32.97;;;;;;;;;;5072903;28;20422;-67
2022/03/26 10:58:34;;;;;;;51.43;32.20;;;;;;;;;;5072768;28;20823;-67
2022/03/26 11:01:00;;;;;;;42.33;30.00;;;;;;;;;;5071993;28;20410;-67
2022/03/26 11:03:26;;;;;;;44.13;30.60;;;;;;;;;;5072824;28;20809;-67
2022/03/26 11:05:54;;;;;;;51.40;32.47;;;;;;;;;;5072811;28;20398;-67
2022/03/26 11:08:20;;;;;;;46.13;31.90;;;;;;;;;;5071642;28;20423;-67
2022/03/26 11:10:46;;;;;;;45.80;31.10;;;;;;;;;;5072633;28;20958;-66
2022/03/26 11:13:12;;;;;;;50.20;32.00;;;;;;;;;;5072704;28;20418;-66
2022/03/26 11:15:50;;;;;;;59.20;32.57;;;;;;;;;;5072675;28;20418;-66
2022/03/26 11:18:28;;;;;;;44.70;29.93;;;;;;;;;;5072549;28;20487;-67
2022/03/26 11:21:09;;;;;;;52.13;31.40;;;;;;;;;;5073300;28;20394;-67
2022/03/26 11:23:39;;;;;;;42.10;30.20;;;;;;;;;;5076269;28;20409;-67
2022/03/26 11:26:20;;;;;;;49.87;32.60;;;;;;;;;;5076295;28;20420;-68
2022/03/26 11:28:58;;;;;;;49.83;31.90;;;;;;;;;;5076482;28;20738;-68
2022/03/26 11:31:42;;;;;;;44.20;31.47;;;;;;;;;;5076215;28;20508;-69
2022/03/26 11:34:09;;;;;;;48.67;30.80;;;;;;;;;;5076026;28;20410;-68
2022/03/26 11:36:35;;;;;;;40.80;29.57;;;;;;;;;;5076053;28;20411;-71
2022/03/26 11:39:12;;;;;;;42.60;31.20;;;;;;;;;;5075774;28;20473;-70
2022/03/26 11:41:39;;;;;;;49.70;32.10;;;;;;;;;;5076207;28;20444;-70
2022/03/26 11:44:06;;;;;;;47.73;30.80;;;;;;;;;;5075993;28;20415;-68
2022/03/26 11:52:25;;;;;;;44.87;30.90;;;;;;;;;;5075855;28;20440;-69
2022/03/26 11:54:57;;;;;;;43.03;30.73;;;;;;;;;;5075890;28;20438;-68
2022/03/26 11:57:24;;;;;;;39.43;31.63;;;;;;;;;;5075639;28;20465;-68
2022/03/26 11:59:50;;;;;;;50.10;30.03;;;;;;;;;;5075553;28;20417;-68
2022/03/26 12:02:20;;;;;;;37.23;29.90;;;;;;;;;;5075597;28;20398;-70
2022/03/26 12:04:48;;;;;;;41.57;31.30;;;;;;;;;;5075523;28;20417;-68
2022/03/26 12:07:15;;;;;;;32.33;28.80;;;;;;;;;;5075491;28;20803;-68
2022/03/26 12:09:41;;;;;;;35.83;29.53;;;;;;;;;;5075623;28;20409;-67
2022/03/26 12:12:08;;;;;;;39.57;29.17;;;;;;;;;;5075498;28;20811;-68
2022/03/26 12:14:38;;;;;;;34.30;28.17;;;;;;;;;;5075592;28;20394;-70
2022/03/26 12:17:08;;;;;;;40.63;30.53;;;;;;;;;;5075160;28;20461;-67
2022/03/26 12:19:38;;;;;;;40.50;32.63;;;;;;;;;;5075239;28;20494;-68
2022/03/26 12:22:20;;;;;;;38.37;30.07;;;;;;;;;;5075184;28;20459;-67
2022/03/26 12:24:47;;;;;;;47.13;29.47;;;;;;;;;;5075121;28;20402;-67
2022/03/26 12:27:13;;;;;;;46.20;29.53;;;;;;;;;;5073816;28;20430;-68
2022/03/26 12:29:39;;;;;;;46.70;30.23;;;;;;;;;;5075088;28;20757;-68
2022/03/26 12:32:06;;;;;;;43.00;29.20;;;;;;;;;;5074229;28;20409;-67
2022/03/26 12:34:32;;;;;;;43.73;29.57;;;;;;;;;;5074839;28;20424;-67
2022/03/26 12:37:01;;;;;;;36.93;27.60;;;;;;;;;;5075032;28;20478;-68
2022/03/26 12:39:30;;;;;;;38.30;29.00;;;;;;;;;;5074809;28;20500;-67
2022/03/26 12:41:56;;;;;;;36.77;28.17;;;;;;;;;;5074721;28;20432;-69
2022/03/26 12:44:23;;;;;;;41.90;29.17;;;;;;;;;;5074765;28;20421;-70
2022/03/26 12:46:49;;;;;;;38.90;28.87;;;;;;;;;;5073415;28;20491;-71
2022/03/26 12:49:16;;;;;;;35.70;28.40;;;;;;;;;;5074703;28;20418;-70
2022/03/26 12:51:42;;;;;;;38.73;29.20;;;;;;;;;;5074980;28;20410;-70
2022/03/26 12:54:08;;;;;;;41.10;29.30;;;;;;;;;;5074628;28;20444;-69
2022/03/26 12:56:34;;;;;;;46.63;30.13;;;;;;;;;;5074540;28;20424;-68
2022/03/26 12:59:05;;;;;;;36.20;27.40;;;;;;;;;;5074394;28;20474;-71
2022/03/26 13:01:31;;;;;;;35.63;27.40;;;;;;;;;;5074390;28;20995;-69
2022/03/26 13:04:00;;;;;;;41.03;29.67;;;;;;;;;;5074552;28;20404;-70
2022/03/26 13:06:26;;;;;;;38.03;27.73;;;;;;;;;;5074413;28;20458;-69
2022/03/26 13:08:57;;;;;;;35.00;26.30;;;;;;;;;;5073109;28;20482;-71
2022/03/26 13:11:24;;;;;;;36.27;28.70;;;;;;;;;;5074354;28;20451;-70
2022/03/26 13:13:52;;;;;;;31.13;25.70;;;;;;;;;;5074234;28;20419;-69
2022/03/26 13:16:21;;;;;;;31.80;27.83;;;;;;;;;;5074428;28;20425;-68
2022/03/26 13:18:48;;;;;;;35.33;27.43;;;;;;;;;;5074044;28;20479;-70
2022/03/26 13:21:16;;;;;;;33.67;26.33;;;;;;;;;;5074031;28;20400;-70
2022/03/26 13:23:55;;;;;;;38.83;27.80;;;;;;;;;;5074273;28;20756;-67
2022/03/26 13:26:21;;;;;;;35.70;27.03;;;;;;;;;;5074016;28;20410;-69
2022/03/26 13:28:47;;;;;;;40.50;25.93;;;;;;;;;;5074012;28;20411;-67
2022/03/26 13:31:18;;;;;;;52.87;26.70;;;;;;;;;;5073952;28;20485;-68
2022/03/26 13:33:44;;;;;;;39.20;27.90;;;;;;;;;;5073785;28;20449;-68
2022/03/26 13:36:10;;;;;;;37.83;25.70;;;;;;;;;;5073713;28;20410;-67
2022/03/26 13:38:39;;;;;;;34.37;28.17;;;;;;;;;;5073522;28;20469;-70
2022/03/26 13:41:21;;;;;;;38.07;27.40;;;;;;;;;;5073708;28;20524;-69
2022/03/26 13:43:48;;;;;;;30.17;26.17;;;;;;;;;;5073350;28;20414;-67
2022/03/26 13:46:14;;;;;;;33.60;27.30;;;;;;;;;;5073661;28;20456;-66
2022/03/26 13:48:47;;;;;;;33.33;25.80;;;;;;;;;;5073622;28;20522;-67
2022/03/26 13:51:13;;;;;;;36.33;27.90;;;;;;;;;;5073442;28;20908;-69
2022/03/26 13:53:40;;;;;;;32.73;25.97;;;;;;;;;;5073553;28;20440;-68
2022/03/26 13:56:07;;;;;;;36.93;26.90;;;;;;;;;;5073537;28;20902;-67
2022/03/26 13:58:34;;;;;;;35.30;26.73;;;;;;;;;;5073694;28;20519;-70
2022/03/26 14:01:00;;;;;;;36.13;25.67;;;;;;;;;;5073394;28;20413;-68
2022/03/26 14:03:26;;;;;;;35.23;26.47;;;;;;;;;;5073347;28;20415;-68
2022/03/26 14:05:52;;;;;;;37.60;26.23;;;;;;;;;;5073316;28;20406;-67
2022/03/26 14:08:18;;;;;;;31.60;25.60;;;;;;;;;;5073294;28;20892;-67
2022/03/26 14:10:45;;;;;;;38.23;26.00;;;;;;;;;;5073236;28;20421;-67
2022/03/26 14:13:13;;;;;;;37.47;27.37;;;;;;;;;;5073283;28;20412;-67
2022/03/26 14:15:39;;;;;;;33.03;24.83;;;;;;;;;;5073260;28;20402;-67
2022/03/26 14:18:06;;;;;;;35.33;26.27;;;;;;;;;;5073136;28;20469;-67
2022/03/26 14:20:33;;;;;;;36.80;26.73;;;;;;;;;;5071855;28;20935;-67
2022/03/26 14:23:03;;;;;;;35.67;27.17;;;;;;;;;;5073201;28;20466;-66